Time;durP1;ratioP1;P1;durP2;ratioP2;P2;SDS_P1;SDS_P2;PMS_P1;PMS_P2;Temp;Humidity;BMP_temperature;BMP_pressure;BME280_temperature;BME280_humidity;BME280_pressure;Samples;Min_cycle;Max_cycle;Signal;HPM_P1;HPM_P2
2021/11/20 00:00:07;;;;;;;66.63;36.81;;;;;;;4.65;66.83;100257.16;464458;112;923692;-78
2021/11/20 00:01:16;;;;;;;64.30;37.41;;;;;;;4.66;66.86;100250.73;463349;111;922883;-78
2021/11/20 00:02:23;;;;;;;65.48;37.76;;;;;;;4.66;66.89;100253.44;464531;112;922579;-80
2021/11/20 00:03:27;;;;;;;63.99;38.28;;;;;;;4.67;66.93;100256.98;464291;112;922526;-79
2021/11/20 00:04:32;;;;;;;65.12;36.60;;;;;;;4.67;66.95;100256.98;464477;112;922501;-79
2021/11/20 00:05:40;;;;;;;64.16;36.87;;;;;;;4.68;66.99;100250.56;463718;111;930490;-79
2021/11/20 00:06:47;;;;;;;61.94;35.65;;;;;;;4.67;67.04;100249.72;459255;113;922556;-79
2021/11/20 00:07:51;;;;;;;65.39;37.37;;;;;;;4.68;67.10;100247.86;459939;113;922963;-79
2021/11/20 00:08:55;;;;;;;65.99;36.41;;;;;;;4.68;67.14;100245.16;460201;113;923073;-79
2021/11/20 00:09:59;;;;;;;63.26;37.54;;;;;;;4.69;67.10;100246.81;459543;113;922744;-79
2021/11/20 00:11:06;;;;;;;61.28;37.07;;;;;;;4.69;67.13;100238.70;459713;113;923184;-78
2021/11/20 00:12:13;;;;;;;64.66;37.71;;;;;;;4.68;67.10;100237.90;459333;113;922465;-79
2021/11/20 00:13:17;;;;;;;63.77;37.09;;;;;;;4.69;67.15;100225.20;459460;113;922738;-79
2021/11/20 00:14:23;;;;;;;56.95;36.11;;;;;;;4.69;67.16;100234.15;458273;113;922901;-78
2021/11/20 00:15:30;;;;;;;54.89;35.07;;;;;;;4.68;67.16;100221.70;459024;114;923108;-78
2021/11/20 00:16:34;;;;;;;61.29;36.51;;;;;;;4.69;67.19;100226.05;459708;114;922652;-78
2021/11/20 00:17:39;;;;;;;64.79;37.01;;;;;;;4.69;67.20;100225.20;459948;113;922789;-78
2021/11/20 00:18:44;;;;;;;62.32;36.24;;;;;;;4.69;67.18;100220.64;458704;113;923243;-78
2021/11/20 00:19:50;;;;;;;60.39;36.26;;;;;;;4.69;67.24;100214.41;459634;113;922652;-79
2021/11/20 00:20:58;;;;;;;59.21;36.14;;;;;;;4.70;67.26;100218.79;448734;116;923131;-79
2021/11/20 00:22:06;;;;;;;62.16;35.54;;;;;;;4.70;67.28;100211.53;439546;117;923015;-78
2021/11/20 00:23:09;;;;;;;62.79;35.28;;;;;;;4.71;67.26;100217.77;443500;118;922859;-80
2021/11/20 00:24:20;;;;;;;58.81;35.21;;;;;;;4.70;67.28;100208.83;442766;119;923471;-80
2021/11/20 00:25:28;;;;;;;58.44;35.08;;;;;;;4.71;67.32;100202.41;443377;117;923127;-78
2021/11/20 00:26:35;;;;;;;61.98;36.15;;;;;;;4.71;67.30;100196.16;442687;118;922965;-78
2021/11/20 00:27:39;;;;;;;59.14;36.00;;;;;;;4.71;67.30;100201.56;442464;118;923052;-79
2021/11/20 00:30:16;;;;;;;59.79;35.61;;;;;;;4.71;67.38;100196.16;443432;117;922624;-79
2021/11/20 00:31:21;;;;;;;53.66;34.33;;;;;;;4.71;67.31;100193.46;442651;117;923056;-79
2021/11/20 00:32:27;;;;;;;59.92;35.94;;;;;;;4.70;67.33;100189.08;442833;119;923371;-79
2021/11/20 00:33:32;;;;;;;56.59;34.63;;;;;;;4.69;67.34;100187.40;442615;119;922659;-79
2021/11/20 00:34:39;;;;;;;58.03;34.48;;;;;;;4.68;67.38;100186.59;442985;117;922662;-79
2021/11/20 00:35:45;;;;;;;59.91;35.74;;;;;;;4.68;67.42;100183.89;442316;117;922770;-79
2021/11/20 00:36:49;;;;;;;62.71;37.42;;;;;;;4.68;67.42;100178.48;443242;118;922707;-79
2021/11/20 00:37:53;;;;;;;59.68;36.28;;;;;;;4.68;67.42;100180.34;443059;118;923168;-79
2021/11/20 00:38:57;;;;;;;58.92;36.28;;;;;;;4.67;67.47;100178.66;443690;118;923124;-79
2021/11/20 00:40:02;;;;;;;60.65;35.27;;;;;;;4.67;67.25;100178.66;442611;118;922996;-79
2021/11/20 00:41:11;;;;;;;56.32;35.86;;;;;;;4.64;67.48;100171.77;442853;119;923106;-79
2021/11/20 00:42:16;;;;;;;56.87;35.10;;;;;;;4.65;67.51;100178.00;442982;117;922804;-79
2021/11/20 00:43:22;;;;;;;55.37;35.47;;;;;;;4.65;67.61;100178.00;443343;117;922647;-79
2021/11/20 00:44:26;;;;;;;63.83;36.60;;;;;;;4.65;67.64;100176.14;442617;119;923236;-77
2021/11/20 00:45:30;;;;;;;61.66;35.43;;;;;;;4.64;67.65;100177.16;443489;118;930624;-76
2021/11/20 00:46:35;;;;;;;60.96;36.89;;;;;;;4.64;67.71;100179.86;442670;119;930491;-78
2021/11/20 00:47:41;;;;;;;63.22;35.33;;;;;;;4.64;67.76;100177.16;442188;118;930358;-79
2021/11/20 00:48:48;;;;;;;60.19;33.38;;;;;;;4.65;67.77;100180.70;442809;117;923466;-78
2021/11/20 00:49:52;;;;;;;58.00;34.41;;;;;;;4.64;67.81;100179.86;443708;119;922753;-77
2021/11/20 00:50:59;;;;;;;59.88;35.81;;;;;;;4.65;67.81;100175.30;442525;118;923092;-78
2021/11/20 00:52:05;;;;;;;62.25;35.75;;;;;;;4.66;67.84;100179.69;442956;118;922717;-78
2021/11/20 00:53:09;;;;;;;58.32;34.22;;;;;;;4.66;67.85;100174.28;443043;117;923164;-78
2021/11/20 00:54:15;;;;;;;59.76;35.61;;;;;;;4.66;67.89;100176.98;443208;117;922731;-78
2021/11/20 00:55:23;;;;;;;52.13;33.16;;;;;;;4.66;67.86;100169.72;442154;117;922730;-79
2021/11/20 00:56:29;;;;;;;56.64;34.22;;;;;;;4.66;67.92;100175.13;442456;117;922987;-77
2021/11/20 00:57:32;;;;;;;62.25;35.58;;;;;;;4.68;67.92;100169.55;435515;119;922761;-78
2021/11/20 00:58:36;;;;;;;59.56;35.61;;;;;;;4.67;67.92;100168.70;443474;116;922665;-78
2021/11/20 00:59:41;;;;;;;64.28;35.69;;;;;;;4.68;67.92;100161.45;442817;118;923504;-78
2021/11/20 01:00:49;;;;;;;59.68;35.03;;;;;;;4.68;67.89;100167.69;442916;118;923286;-77
2021/11/20 01:01:58;;;;;;;51.17;31.89;;;;;;;4.68;67.90;100169.55;443826;118;922845;-77
2021/11/20 01:03:04;;;;;;;58.48;33.29;;;;;;;4.68;67.92;100159.59;443426;117;922550;-77
2021/11/20 01:04:09;;;;;;;54.97;32.93;;;;;;;4.69;67.92;100152.30;436111;119;922752;-78
2021/11/20 01:05:14;;;;;;;54.99;33.77;;;;;;;4.69;67.97;100141.49;451831;113;923440;-78
2021/11/20 01:06:20;;;;;;;57.42;33.14;;;;;;;4.69;67.99;100144.19;459334;113;922618;-78
2021/11/20 01:07:24;;;;;;;59.53;33.98;;;;;;;4.71;68.00;100142.16;458172;113;923347;-79
2021/11/20 01:08:32;;;;;;;54.04;32.29;;;;;;;4.72;67.98;100138.44;458104;113;930278;-78
2021/11/20 01:09:39;;;;;;;53.96;32.58;;;;;;;4.73;68.02;100134.72;459484;113;922907;-79
2021/11/20 01:10:46;;;;;;;56.84;33.42;;;;;;;4.75;68.03;100133.48;459021;113;922754;-78
2021/11/20 01:11:56;;;;;;;51.67;31.04;;;;;;;4.76;67.99;100127.06;458977;114;923208;-78
2021/11/20 01:13:01;;;;;;;;;;;;;;;4.77;67.95;100128.74;451159;116;922319;-79
2021/11/20 01:14:08;;;;;;;47.23;29.76;;;;;;;4.78;67.94;100129.58;449719;113;922572;-78
2021/11/20 01:15:15;;;;;;;55.35;31.66;;;;;;;4.77;68.02;100131.45;449367;116;922829;-77
2021/11/20 01:16:23;;;;;;;52.73;30.84;;;;;;;4.76;68.11;100118.95;443932;116;923042;-78
2021/11/20 01:17:31;;;;;;;60.17;32.29;;;;;;;4.77;68.13;100119.80;450558;114;923617;-77
2021/11/20 01:18:35;;;;;;;52.19;31.77;;;;;;;4.78;68.17;100110.67;458974;113;922596;-78
2021/11/20 01:19:46;;;;;;;59.62;32.91;;;;;;;4.78;68.22;100116.08;458258;113;923186;-79
2021/11/20 01:20:54;;;;;;;54.68;31.89;;;;;;;4.78;68.24;100106.12;459401;113;922577;-78
2021/11/20 01:22:00;;;;;;;57.65;32.58;;;;;;;4.80;68.32;100103.20;459872;113;922614;-79
2021/11/20 01:23:06;;;;;;;66.13;33.57;;;;;;;4.81;68.32;100103.02;448782;116;922958;-78
2021/11/20 01:24:21;;;;;;;57.31;31.99;;;;;;;4.83;68.29;100102.84;450647;113;923384;-78
2021/11/20 01:25:25;;;;;;;55.46;32.69;;;;;;;4.84;68.25;100102.66;457690;113;922754;-78
2021/11/20 01:26:31;;;;;;;58.20;32.62;;;;;;;4.85;68.27;100100.80;457643;113;922755;-78
2021/11/20 01:27:36;;;;;;;59.29;33.69;;;;;;;4.85;68.28;100100.80;459501;113;922553;-77
2021/11/20 01:28:43;;;;;;;54.40;31.89;;;;;;;4.86;68.26;100099.75;455944;113;922943;-77
2021/11/20 01:29:53;;;;;;;58.42;32.48;;;;;;;4.87;68.23;100104.13;456831;114;922627;-78
2021/11/20 01:30:57;;;;;;;56.54;32.83;;;;;;;4.88;68.23;100100.41;458069;113;922772;-77
2021/11/20 01:32:03;;;;;;;64.64;33.86;;;;;;;4.87;68.27;100099.56;449118;114;922727;-77
2021/11/20 01:33:08;;;;;;;61.17;32.96;;;;;;;4.87;68.25;100098.73;458997;113;922906;-79
2021/11/20 01:34:13;;;;;;;60.80;34.05;;;;;;;4.87;68.23;100093.33;459639;113;922598;-78
2021/11/20 01:35:19;;;;;;;56.83;32.16;;;;;;;4.86;68.27;100091.64;458618;113;922642;-78
2021/11/20 01:36:28;;;;;;;65.06;34.29;;;;;;;4.87;68.29;100096.03;458673;114;922518;-79
2021/11/20 01:37:34;;;;;;;63.28;34.91;;;;;;;4.86;68.25;100080.84;458471;113;922754;-79
2021/11/20 01:38:38;;;;;;;62.45;33.03;;;;;;;4.84;68.25;100083.75;449694;116;923572;-79
2021/11/20 01:39:48;;;;;;;64.48;35.09;;;;;;;4.84;68.27;100085.61;449341;115;930119;-79
2021/11/20 01:40:59;;;;;;;67.59;34.78;;;;;;;4.84;68.36;100082.91;445842;117;922948;-79
2021/11/20 01:42:11;;;;;;;64.58;33.28;;;;;;;4.82;68.42;100080.39;442464;116;922827;-79
2021/11/20 01:43:17;;;;;;;64.01;33.74;;;;;;;4.81;68.48;100075.17;445389;116;922585;-79
2021/11/20 01:44:25;;;;;;;58.45;33.00;;;;;;;4.80;68.50;100071.63;438724;119;922649;-79
2021/11/20 01:45:33;;;;;;;65.00;33.39;;;;;;;4.79;68.58;100059.19;443654;116;923124;-79
2021/11/20 01:46:41;;;;;;;68.76;33.62;;;;;;;4.81;68.62;100061.67;449325;113;923560;-78
2021/11/20 01:47:52;;;;;;;60.57;33.01;;;;;;;4.82;68.69;100060.65;457747;114;923145;-78
2021/11/20 01:49:17;;;;;;;66.62;33.06;;;;;;;4.83;68.76;100059.62;458745;113;922611;-78
2021/11/20 01:50:33;;;;;;;64.22;32.65;;;;;;;4.83;68.71;100057.77;439722;118;922886;-79
2021/11/20 01:51:40;;;;;;;62.24;33.79;;;;;;;4.84;68.75;100053.20;455295;113;923068;-78
2021/11/20 01:52:56;;;;;;;67.68;34.74;;;;;;;4.84;68.78;100053.20;460290;112;922802;-78
2021/11/20 01:54:09;;;;;;;62.77;33.81;;;;;;;4.85;68.80;100038.68;456811;114;923149;-79
2021/11/20 01:55:37;;;;;;;67.25;34.93;;;;;;;4.82;68.83;100047.98;458806;114;922648;-79
2021/11/20 01:56:52;;;;;;;67.32;33.95;;;;;;;4.82;68.87;100045.28;457124;113;922714;-79
2021/11/20 01:58:01;;;;;;;60.31;32.30;;;;;;;4.81;68.94;100032.80;449398;115;922616;-78
2021/11/20 01:59:15;;;;;;;60.17;34.09;;;;;;;4.81;69.01;100026.56;451545;114;922728;-78
2021/11/20 02:00:40;;;;;;;64.68;32.32;;;;;;;4.80;69.07;100020.31;451695;113;922759;-77
2021/11/20 02:01:48;;;;;;;61.92;32.89;;;;;;;4.79;69.17;100025.94;459380;113;922734;-79
2021/11/20 02:03:06;;;;;;;67.57;33.49;;;;;;;4.79;69.20;100023.23;455535;114;923028;-76
2021/11/20 02:04:26;;;;;;;66.83;33.84;;;;;;;4.79;69.25;100023.23;459354;113;923281;-76
2021/11/20 02:05:36;;;;;;;63.72;32.37;;;;;;;4.77;69.28;100023.41;458749;113;922637;-77
2021/11/20 02:06:51;;;;;;;58.72;32.24;;;;;;;4.78;69.36;100008.05;457707;112;922732;-77
2021/11/20 02:08:09;;;;;;;57.39;33.19;;;;;;;4.78;69.39;100014.29;461825;113;922675;-76
2021/11/20 02:09:37;;;;;;;61.48;32.28;;;;;;;4.79;69.40;100009.73;460770;112;922905;-78
2021/11/20 02:10:55;;;;;;;67.09;32.95;;;;;;;4.78;69.47;100005.34;440733;116;922616;-77
2021/11/20 02:12:09;;;;;;;66.93;34.14;;;;;;;4.88;69.59;99992.36;470723;110;947218;-78
2021/11/20 02:13:17;;;;;;;62.84;31.33;;;;;;;4.76;69.62;99994.73;461892;112;923303;-75
2021/11/20 02:14:23;;;;;;;65.57;32.80;;;;;;;4.77;69.63;99990.17;464581;112;923287;-76
2021/11/20 02:15:37;;;;;;;61.79;32.42;;;;;;;4.77;69.66;99984.77;455113;114;922728;-76
2021/11/20 02:16:50;;;;;;;65.96;33.75;;;;;;;4.78;69.64;99983.74;455861;112;922988;-75
2021/11/20 02:17:56;;;;;;;60.27;33.41;;;;;;;4.78;69.69;99987.28;462392;112;922961;-76
2021/11/20 02:19:05;;;;;;;66.97;34.23;;;;;;;4.78;69.74;99978.34;461772;112;922745;-76
2021/11/20 02:20:13;;;;;;;54.39;32.49;;;;;;;4.78;69.71;99981.88;456623;113;922680;-78
2021/11/20 02:21:26;;;;;;;59.57;33.25;;;;;;;4.79;69.78;99977.31;455541;112;922884;-78
2021/11/20 02:22:38;;;;;;;65.87;33.83;;;;;;;4.79;69.81;99978.16;463291;111;922644;-78
2021/11/20 02:23:43;;;;;;;57.05;31.97;;;;;;;4.80;69.83;99970.86;461480;111;922643;-78
2021/11/20 02:24:47;;;;;;;61.80;31.87;;;;;;;4.82;69.86;99971.52;461265;112;923407;-78
2021/11/20 02:25:55;;;;;;;50.79;30.06;;;;;;;4.82;69.95;99969.66;440285;118;923395;-77
2021/11/20 02:27:04;;;;;;;52.32;30.18;;;;;;;4.83;70.01;99967.80;453679;112;923153;-78
2021/11/20 02:28:09;;;;;;;46.00;27.51;;;;;;;4.84;70.05;99966.77;461585;111;922662;-77
2021/11/20 02:29:14;;;;;;;49.07;28.51;;;;;;;4.85;70.00;99969.26;461880;112;922545;-78
2021/11/20 02:30:38;;;;;;;49.52;28.23;;;;;;;4.86;70.08;99961.99;459742;111;922668;-77
2021/11/20 02:31:49;;;;;;;43.39;27.12;;;;;;;4.87;70.13;99971.77;462682;111;923279;-76
2021/11/20 02:33:09;;;;;;;48.01;27.86;;;;;;;4.87;70.24;99963.67;462047;111;922723;-77
2021/11/20 02:34:19;;;;;;;42.34;25.77;;;;;;;4.88;70.29;99962.65;462063;111;923134;-77
2021/11/20 02:35:33;;;;;;;49.13;26.69;;;;;;;4.89;70.25;99959.77;463997;111;922554;-78
2021/11/20 02:36:37;;;;;;;47.95;28.13;;;;;;;4.89;70.33;99961.63;462618;111;922537;-77
2021/11/20 02:37:41;;;;;;;45.32;25.56;;;;;;;4.88;70.41;99951.84;463439;111;923223;-77
2021/11/20 02:38:49;;;;;;;48.29;26.93;;;;;;;4.89;70.47;99965.16;461548;112;923020;-77
2021/11/20 02:39:52;;;;;;;44.00;26.23;;;;;;;4.90;70.48;99957.91;461970;111;923631;-78
2021/11/20 02:40:59;;;;;;;44.89;26.77;;;;;;;4.91;70.50;99962.25;462492;111;922631;-77
2021/11/20 02:42:05;;;;;;;45.90;26.39;;;;;;;4.92;70.47;99953.13;456223;114;923657;-75
2021/11/20 02:43:13;;;;;;;42.65;26.69;;;;;;;4.92;70.53;99953.95;457432;112;922740;-76
2021/11/20 02:44:21;;;;;;;44.86;26.44;;;;;;;4.92;70.51;99948.55;457873;111;922676;-75
2021/11/20 02:45:33;;;;;;;43.12;26.04;;;;;;;4.94;70.58;99953.77;462325;112;922981;-78
2021/11/20 02:46:38;;;;;;;;;;;;;;;4.95;70.61;99950.05;466444;111;922290;-77
2021/11/20 02:47:42;;;;;;;44.27;26.07;;;;;;;4.96;70.63;99949.02;462844;112;922548;-80
2021/11/20 02:48:47;;;;;;;43.22;27.00;;;;;;;4.95;70.66;99944.64;462617;112;923024;-78
2021/11/20 02:49:51;;;;;;;43.08;27.12;;;;;;;4.96;70.68;99943.62;462095;111;922722;-76
2021/11/20 02:51:14;;;;;;;40.43;26.41;;;;;;;4.97;70.72;99942.56;461919;111;922569;-77
2021/11/20 02:52:19;;;;;;;34.57;24.44;;;;;;;4.97;70.69;99951.51;462078;111;922688;-76
2021/11/20 02:53:33;;;;;;;38.68;25.91;;;;;;;4.99;70.68;99943.22;461469;112;922661;-76
2021/11/20 02:54:37;;;;;;;38.59;25.30;;;;;;;4.99;70.71;99938.66;461548;111;923171;-76
2021/11/20 02:55:44;;;;;;;39.55;24.70;;;;;;;5.01;70.71;99941.17;454048;114;923654;-77
2021/11/20 02:57:00;;;;;;;36.02;24.29;;;;;;;5.01;70.81;99944.71;453771;112;922785;-76
2021/11/20 02:58:04;;;;;;;33.34;22.51;;;;;;;5.03;70.79;99936.39;460139;111;923180;-77
2021/11/20 02:59:08;;;;;;;29.10;22.59;;;;;;;5.03;70.77;99931.82;460853;111;922889;-77
2021/11/20 03:00:17;;;;;;;30.93;22.76;;;;;;;5.04;70.78;99933.50;461510;112;922705;-76
2021/11/20 03:01:25;;;;;;;27.94;21.61;;;;;;;5.06;70.81;99930.61;463487;112;922642;-76
2021/11/20 03:02:29;;;;;;;27.93;22.06;;;;;;;5.06;70.79;99922.50;455982;114;922901;-77
2021/11/20 03:03:35;;;;;;;26.02;20.94;;;;;;;5.05;70.82;99923.53;457164;111;922727;-76
2021/11/20 03:04:39;;;;;;;23.69;20.83;;;;;;;5.05;70.85;99920.83;462186;112;922737;-76
2021/11/20 03:05:44;;;;;;;27.52;21.62;;;;;;;5.04;70.89;99911.89;452849;114;922608;-78
2021/11/20 03:06:52;;;;;;;28.99;21.58;;;;;;;5.06;70.98;99917.10;454915;112;922841;-78
2021/11/20 03:07:55;;;;;;;25.28;21.19;;;;;;;5.07;70.97;99912.54;461269;111;922682;-75
2021/11/20 03:08:59;;;;;;;23.88;21.18;;;;;;;5.10;70.99;99912.13;462737;112;922734;-76
2021/11/20 03:10:05;;;;;;;30.44;24.88;;;;;;;5.09;71.00;99913.99;464072;111;922684;-77
2021/11/20 03:11:13;;;;;;;26.99;23.93;;;;;;;5.10;71.16;99902.16;461695;112;922598;-76
2021/11/20 03:12:19;;;;;;;26.01;22.76;;;;;;;5.10;71.16;99902.16;459447;113;923791;-76
2021/11/20 03:13:24;;;;;;;27.18;23.34;;;;;;;5.10;71.03;99899.46;450012;115;922741;-78
2021/11/20 03:14:29;;;;;;;27.19;21.88;;;;;;;5.10;71.07;99909.43;450811;113;922739;-77
2021/11/20 03:15:33;;;;;;;29.01;22.14;;;;;;;5.10;71.14;99901.33;450059;115;922679;-77
2021/11/20 03:16:41;;;;;;;31.08;22.86;;;;;;;5.10;71.19;99902.16;451260;115;922586;-77
2021/11/20 03:17:45;;;;;;;28.38;21.71;;;;;;;5.09;71.27;99905.89;459475;113;922573;-78
2021/11/20 03:18:51;;;;;;;26.20;22.33;;;;;;;5.08;71.28;99908.78;458411;113;922572;-79
2021/11/20 03:19:55;;;;;;;27.24;22.81;;;;;;;5.07;71.32;99904.43;449680;115;922659;-78
2021/11/20 03:20:59;;;;;;;26.10;21.11;;;;;;;5.07;71.41;99905.27;449936;113;922663;-76
2021/11/20 03:22:09;;;;;;;27.84;22.59;;;;;;;5.09;71.42;99897.78;457876;113;922533;-78
2021/11/20 03:23:17;;;;;;;22.71;20.45;;;;;;;5.09;71.44;99900.48;459181;113;922736;-77
2021/11/20 03:24:23;;;;;;;26.84;21.78;;;;;;;5.07;71.45;99891.77;462083;113;922750;-77
2021/11/20 03:25:28;;;;;;;24.68;20.97;;;;;;;5.07;71.53;99891.77;459210;113;922643;-77
2021/11/20 03:26:34;;;;;;;25.51;22.16;;;;;;;5.06;71.54;99875.73;460214;113;922437;-76
2021/11/20 03:27:38;;;;;;;24.47;20.19;;;;;;;5.06;71.64;99878.44;459700;113;923050;-78
2021/11/20 03:28:42;;;;;;;22.05;19.78;;;;;;;5.05;71.65;99872.20;460262;113;922740;-78
2021/11/20 03:29:46;;;;;;;22.78;20.36;;;;;;;5.06;71.69;99873.03;459204;113;922701;-78
2021/11/20 03:30:51;;;;;;;22.87;19.91;;;;;;;5.04;71.72;99867.82;458948;113;922759;-78
2021/11/20 03:31:56;;;;;;;21.84;19.76;;;;;;;5.02;71.76;99864.47;458267;113;922852;-79
2021/11/20 03:33:03;;;;;;;21.69;19.51;;;;;;;5.03;71.88;99860.73;459367;113;922712;-77
2021/11/20 03:34:07;;;;;;;23.31;20.01;;;;;;;5.02;71.95;99862.61;460184;113;922564;-78
2021/11/20 03:35:13;;;;;;;22.29;19.88;;;;;;;5.03;72.00;99858.88;459434;113;930634;-79
2021/11/20 03:36:17;;;;;;;21.78;19.49;;;;;;;5.04;72.06;99857.02;459485;113;922960;-78
2021/11/20 03:37:23;;;;;;;24.75;20.41;;;;;;;5.04;72.08;99855.15;457973;113;922628;-77
2021/11/20 03:38:29;;;;;;;25.66;20.31;;;;;;;5.04;72.09;99857.85;459220;113;922605;-78
2021/11/20 03:39:34;;;;;;;21.46;19.34;;;;;;;5.05;72.13;99855.98;458487;113;922624;-77
2021/11/20 03:40:40;;;;;;;22.35;19.55;;;;;;;5.06;72.19;99859.52;457852;113;922558;-79
2021/11/20 03:41:44;;;;;;;21.24;19.11;;;;;;;5.06;72.18;99854.96;450396;115;922893;-79
2021/11/20 03:42:49;;;;;;;21.58;19.14;;;;;;;5.08;72.23;99857.44;443274;115;923241;-78
2021/11/20 03:43:54;;;;;;;21.54;19.43;;;;;;;5.09;72.30;99845.61;450498;113;925672;-79
2021/11/20 03:44:57;;;;;;;21.51;18.87;;;;;;;5.09;72.28;99859.95;458006;113;922571;-79
2021/11/20 03:46:01;;;;;;;20.68;18.49;;;;;;;5.09;72.30;99857.25;457202;113;922935;-76
2021/11/20 03:47:06;;;;;;;20.54;18.13;;;;;;;5.10;72.32;99863.50;458534;113;922546;-77
2021/11/20 03:48:13;;;;;;;21.01;18.99;;;;;;;5.11;72.36;99865.17;460039;113;922700;-78
2021/11/20 03:49:17;;;;;;;21.01;18.99;;;;;;;5.11;72.37;99855.20;459216;113;922780;-78
2021/11/20 03:50:21;;;;;;;20.28;18.32;;;;;;;5.10;72.37;99852.69;460714;113;922686;-79
2021/11/20 03:51:26;;;;;;;20.52;18.53;;;;;;;5.10;72.43;99849.98;459322;113;922618;-78
2021/11/20 03:52:30;;;;;;;21.64;19.46;;;;;;;5.10;72.23;99853.52;458980;113;922615;-78
2021/11/20 03:53:34;;;;;;;20.76;18.62;;;;;;;5.10;72.46;99848.13;460465;113;923913;-78
2021/11/20 03:54:39;;;;;;;20.40;18.48;;;;;;;5.11;72.49;99852.50;459747;113;923067;-78
2021/11/20 03:55:46;;;;;;;20.97;18.77;;;;;;;5.12;72.53;99853.34;446216;116;922725;-78
2021/11/20 03:56:50;;;;;;;19.56;17.68;;;;;;;5.14;72.60;99851.25;447519;114;922747;-80
2021/11/20 03:57:54;;;;;;;21.00;18.87;;;;;;;5.15;72.61;99853.77;459438;113;922619;-78
2021/11/20 03:58:58;;;;;;;19.95;17.92;;;;;;;5.17;72.61;99840.91;457881;113;923348;-78
2021/11/20 04:00:05;;;;;;;25.55;19.24;;;;;;;5.19;72.64;99848.79;457936;113;922664;-77
2021/11/20 04:01:15;;;;;;;20.72;18.56;;;;;;;5.21;72.69;99844.87;458554;113;923602;-77
2021/11/20 04:02:19;;;;;;;20.51;18.56;;;;;;;5.24;72.67;99843.63;458028;113;922904;-77
2021/11/20 04:03:22;;;;;;;20.61;18.69;;;;;;;5.27;72.66;99840.54;444234;117;922703;-75
2021/11/20 04:04:28;;;;;;;20.06;18.12;;;;;;;5.27;72.62;99833.27;443622;117;923176;-76
2021/11/20 04:05:33;;;;;;;20.19;18.29;;;;;;;5.30;72.65;99834.72;442926;117;922864;-75
2021/11/20 04:06:37;;;;;;;20.22;17.63;;;;;;;5.31;72.65;99834.53;426012;120;923207;-76
2021/11/20 04:07:42;;;;;;;21.32;18.17;;;;;;;5.32;72.61;99828.09;452487;113;922660;-76
2021/11/20 04:08:49;;;;;;;18.69;16.78;;;;;;;5.34;72.67;99825.20;458225;113;923522;-76
2021/11/20 04:09:54;;;;;;;19.77;17.92;;;;;;;5.35;72.62;99821.44;457529;113;922503;-76
2021/11/20 04:10:59;;;;;;;18.05;16.26;;;;;;;5.35;72.59;99822.28;451367;115;922714;-77
2021/11/20 04:12:05;;;;;;;18.60;16.97;;;;;;;5.36;72.57;99806.90;452312;114;922791;-75
2021/11/20 04:13:09;;;;;;;18.31;16.66;;;;;;;5.36;72.62;99805.03;458842;114;923213;-76
2021/11/20 04:14:15;;;;;;;18.94;16.94;;;;;;;5.37;72.62;99800.46;457872;113;922824;-78
2021/11/20 04:15:23;;;;;;;18.48;16.79;;;;;;;5.38;72.70;99802.98;460216;113;922585;-76
2021/11/20 04:16:29;;;;;;;19.46;17.63;;;;;;;5.40;72.73;99800.88;460147;113;922547;-76
2021/11/20 04:17:34;;;;;;;19.02;17.31;;;;;;;5.43;72.78;99786.98;459410;114;923148;-76
2021/11/20 04:18:38;;;;;;;18.18;16.53;;;;;;;5.43;72.78;99786.98;456429;114;922747;-75
2021/11/20 04:19:45;;;;;;;18.63;16.84;;;;;;;5.44;72.74;99787.83;456708;114;922989;-77
2021/11/20 04:20:49;;;;;;;18.64;16.89;;;;;;;5.44;72.74;99779.71;458715;114;922701;-76
2021/11/20 04:21:53;;;;;;;18.70;16.73;;;;;;;5.43;72.75;99776.17;458236;113;922887;-78
2021/11/20 04:22:57;;;;;;;18.78;16.96;;;;;;;5.44;72.77;99774.30;458771;113;923216;-77
2021/11/20 04:24:02;;;;;;;17.95;16.31;;;;;;;5.45;72.77;99773.28;457741;113;930780;-77
2021/11/20 04:25:24;;;;;;;19.96;18.08;;;;;;;5.45;72.75;99768.70;458835;113;922816;-77
2021/11/20 04:26:31;;;;;;;19.64;17.80;;;;;;;5.43;72.80;99759.95;458944;113;922609;-78
2021/11/20 04:27:35;;;;;;;19.33;17.59;;;;;;;5.43;72.87;99757.25;458516;113;922549;-77
2021/11/20 04:28:40;;;;;;;18.22;16.54;;;;;;;5.44;72.93;99748.11;457427;114;922701;-77
2021/11/20 04:29:46;;;;;;;18.56;16.76;;;;;;;5.45;72.95;99759.76;458106;114;922576;-77
2021/11/20 04:30:50;;;;;;;19.11;17.35;;;;;;;5.45;72.95;99749.78;459216;114;922610;-77
2021/11/20 04:31:56;;;;;;;20.28;17.73;;;;;;;5.44;73.01;99753.52;457988;113;922643;-76
2021/11/20 04:33:01;;;;;;;18.66;16.97;;;;;;;5.45;73.02;99746.24;457127;114;922826;-76
2021/11/20 04:34:06;;;;;;;19.15;17.34;;;;;;;5.43;73.03;99742.89;458334;114;922708;-74
2021/11/20 04:35:11;;;;;;;18.76;16.81;;;;;;;5.42;73.08;99750.17;457208;114;923005;-77
2021/11/20 04:36:16;;;;;;;19.83;17.93;;;;;;;5.42;73.14;99747.46;457578;113;922866;-76
2021/11/20 04:37:20;;;;;;;21.52;17.25;;;;;;;5.41;73.17;99748.50;457914;113;922612;-78
2021/11/20 04:38:24;;;;;;;18.16;16.41;;;;;;;5.41;73.21;99743.09;458336;113;922577;-75
2021/11/20 04:39:31;;;;;;;17.06;15.44;;;;;;;5.41;73.28;99751.20;456887;113;922709;-78
2021/11/20 04:40:38;;;;;;;20.66;18.72;;;;;;;5.41;73.30;99742.25;454346;114;922694;-80
2021/11/20 04:41:42;;;;;;;19.22;17.09;;;;;;;5.42;73.38;99749.33;446398;117;923274;-75
2021/11/20 04:42:46;;;;;;;19.64;17.73;;;;;;;5.43;73.45;99749.14;452314;116;922895;-75
2021/11/20 04:43:52;;;;;;;19.94;17.91;;;;;;;5.44;73.43;99740.00;439190;118;922843;-78
2021/11/20 04:44:57;;;;;;;19.45;17.70;;;;;;;5.44;73.44;99739.16;445019;117;923158;-78
2021/11/20 04:46:02;;;;;;;19.02;17.33;;;;;;;5.45;73.49;99735.43;445679;117;922976;-79
2021/11/20 04:47:06;;;;;;;19.22;17.34;;;;;;;5.45;73.54;99725.45;446329;116;922593;-77
2021/11/20 04:48:10;;;;;;;19.16;17.28;;;;;;;5.47;73.55;99727.92;446074;116;922740;-79
2021/11/20 04:49:28;;;;;;;18.71;16.94;;;;;;;5.49;73.56;99727.73;445195;116;922625;-80
2021/11/20 04:50:33;;;;;;;20.15;18.16;;;;;;;5.50;73.59;99730.24;445535;116;922628;-78
2021/11/20 04:51:37;;;;;;;21.92;17.23;;;;;;;5.52;73.59;99728.16;446385;117;922480;-78
2021/11/20 04:52:41;;;;;;;20.35;18.34;;;;;;;5.53;73.58;99728.98;446065;117;930621;-78
2021/11/20 04:53:47;;;;;;;20.50;18.63;;;;;;;5.54;73.55;99719.84;446156;117;930523;-78
2021/11/20 04:54:51;;;;;;;20.43;18.43;;;;;;;5.53;73.56;99724.41;446071;116;923162;-76
2021/11/20 04:55:58;;;;;;;20.44;18.49;;;;;;;5.54;73.54;99726.09;442859;118;923051;-78
2021/11/20 04:57:03;;;;;;;21.27;18.32;;;;;;;5.54;73.52;99725.25;440055;118;923030;-80
2021/11/20 04:58:07;;;;;;;19.77;17.95;;;;;;;5.53;73.61;99720.88;434520;120;922660;-78
2021/11/20 04:59:10;;;;;;;19.47;17.68;;;;;;;5.53;73.62;99724.41;452011;114;922529;-77
2021/11/20 05:00:22;;;;;;;19.04;17.15;;;;;;;5.53;73.65;99720.88;458281;114;930736;-79
2021/11/20 05:01:29;;;;;;;20.16;18.38;;;;;;;5.54;73.64;99719.84;458470;113;922340;-78
2021/11/20 05:02:34;;;;;;;19.67;17.69;;;;;;;5.52;73.69;99725.45;459688;113;922304;-78
2021/11/20 05:03:39;;;;;;;20.76;18.18;;;;;;;5.54;73.77;99727.95;460000;114;922302;-79
2021/11/20 05:04:43;;;;;;;17.94;16.35;;;;;;;5.55;73.75;99724.22;458903;114;922366;-77
2021/11/20 05:05:50;;;;;;;21.18;17.61;;;;;;;5.56;73.77;99720.48;457871;113;922615;-78
2021/11/20 05:06:55;;;;;;;17.58;16.06;;;;;;;5.57;73.79;99717.55;458936;113;923034;-77
2021/11/20 05:07:59;;;;;;;17.56;15.83;;;;;;;5.58;73.81;99712.98;459034;113;922731;-78